Time;durP1;ratioP1;P1;durP2;ratioP2;P2;SDS_P1;SDS_P2;PMS_P1;PMS_P2;Temp;Humidity;BMP_temperature;BMP_pressure;BME280_temperature;BME280_humidity;BME280_pressure;Samples;Min_cycle;Max_cycle;Signal;HPM_P1;HPM_P2
2024/03/18 00:00:58;;;;;;;9.40;8.50;;;;;;;8.08;100.00;100897.20;105869;1253;61124;-74
2024/03/18 00:03:27;;;;;;;8.40;6.70;;;;;;;8.05;100.00;100893.86;105861;1256;61171;-75
2024/03/18 00:05:55;;;;;;;8.80;6.80;;;;;;;8.02;100.00;100891.00;105849;1256;73914;-76
2024/03/18 00:08:22;;;;;;;13.50;8.20;;;;;;;8.04;100.00;100892.47;105742;1256;62574;-74
2024/03/18 00:10:49;;;;;;;10.70;6.90;;;;;;;8.05;100.00;100888.80;105839;1256;73184;-74
2024/03/18 00:13:17;;;;;;;8.30;7.40;;;;;;;8.13;100.00;100886.34;105756;1252;60479;-76
2024/03/18 00:15:44;;;;;;;7.70;6.80;;;;;;;8.17;100.00;100884.92;105798;1256;60351;-74
2024/03/18 00:18:11;;;;;;;11.20;8.40;;;;;;;8.21;100.00;100883.55;105742;1256;72386;-73
2024/03/18 00:20:38;;;;;;;9.60;7.90;;;;;;;8.18;100.00;100882.10;105797;1254;64278;-74
2024/03/18 00:23:06;;;;;;;10.50;8.00;;;;;;;8.16;100.00;100882.91;105838;1253;72485;-76
2024/03/18 00:25:33;;;;;;;8.50;7.20;;;;;;;8.15;100.00;100881.74;105705;1256;61422;-74
2024/03/18 00:28:02;;;;;;;8.40;7.40;;;;;;;8.15;100.00;100878.26;105664;1251;60492;-75
2024/03/18 00:30:29;;;;;;;9.70;7.40;;;;;;;8.19;100.00;100880.85;105758;1252;72857;-74
2024/03/18 00:32:57;;;;;;;8.40;6.70;;;;;;;8.22;100.00;100882.44;105711;1254;63655;-76
2024/03/18 00:35:24;;;;;;;9.60;7.00;;;;;;;8.23;100.00;100879.61;105893;1256;71286;-75
2024/03/18 00:37:51;;;;;;;10.20;8.60;;;;;;;8.22;100.00;100876.02;105795;1251;63988;-76
2024/03/18 00:40:19;;;;;;;10.80;9.40;;;;;;;8.20;100.00;100875.05;105965;1256;60312;-74
2024/03/18 00:42:47;;;;;;;12.50;10.20;;;;;;;8.22;100.00;100873.55;105848;1252;73823;-73
2024/03/18 00:45:14;;;;;;;11.90;10.30;;;;;;;8.25;100.00;100872.55;105862;1256;63718;-75
2024/03/18 00:47:42;;;;;;;12.90;10.40;;;;;;;8.27;100.00;100871.77;105747;1256;71870;-76
2024/03/18 00:50:11;;;;;;;11.10;9.20;;;;;;;8.26;100.00;100869.70;105815;1257;60444;-75
2024/03/18 00:52:39;;;;;;;9.30;7.40;;;;;;;8.24;100.00;100867.91;105892;1256;60530;-73
2024/03/18 00:55:10;;;;;;;8.40;7.40;;;;;;;8.19;100.00;100866.20;105847;1259;73990;-75
2024/03/18 00:57:38;;;;;;;8.40;6.20;;;;;;;8.17;100.00;100866.83;105845;1253;62578;-74
2024/03/18 01:00:11;;;;;;;8.20;6.40;;;;;;;8.14;100.00;100868.70;105750;1253;71459;-73
2024/03/18 01:02:39;;;;;;;8.20;7.00;;;;;;;8.09;100.00;100869.78;105755;1255;60610;-74
2024/03/18 01:05:09;;;;;;;7.90;6.50;;;;;;;8.05;100.00;100866.17;105948;1255;60432;-73
2024/03/18 01:07:37;;;;;;;9.20;6.50;;;;;;;8.00;100.00;100866.73;105713;1256;72214;-74
2024/03/18 01:10:05;;;;;;;9.40;7.30;;;;;;;7.97;100.00;100862.15;105871;1252;63561;-75
2024/03/18 01:12:33;;;;;;;8.60;6.80;;;;;;;7.99;100.00;100865.75;105865;1256;71847;-75
2024/03/18 01:15:00;;;;;;;7.70;6.50;;;;;;;8.00;100.00;100862.55;105876;1252;60850;-74
2024/03/18 01:17:28;;;;;;;7.20;6.30;;;;;;;7.97;100.00;100863.20;105919;1256;60326;-75
2024/03/18 01:19:55;;;;;;;7.90;7.00;;;;;;;7.93;100.00;100862.88;105826;1256;73810;-75
2024/03/18 01:22:24;;;;;;;9.60;6.90;;;;;;;7.88;100.00;100864.32;105853;1256;63633;-75
2024/03/18 01:24:51;;;;;;;8.20;7.20;;;;;;;7.83;100.00;100866.27;105941;1252;72642;-73
2024/03/18 01:27:18;;;;;;;7.20;6.30;;;;;;;7.79;100.00;100861.07;105688;1256;60528;-74
2024/03/18 01:29:48;;;;;;;9.10;6.50;;;;;;;7.76;100.00;100861.04;105799;1251;60333;-74
2024/03/18 01:32:16;;;;;;;7.40;5.90;;;;;;;7.72;100.00;100863.10;106133;1256;73917;-72
2024/03/18 01:34:43;;;;;;;7.00;6.20;;;;;;;7.72;100.00;100862.10;106055;1252;63581;-72
2024/03/18 01:37:11;;;;;;;8.50;6.40;;;;;;;7.71;100.00;100860.55;106213;1253;70390;-71
2024/03/18 01:39:38;;;;;;;8.10;6.40;;;;;;;7.71;100.00;100855.85;106025;1253;61529;-73
2024/03/18 01:42:05;;;;;;;7.50;6.30;;;;;;;7.71;100.00;100853.95;106284;1252;61225;-72
2024/03/18 01:44:32;;;;;;;7.60;5.10;;;;;;;7.70;100.00;100852.94;106258;1256;74605;-71
2024/03/18 01:47:00;;;;;;;7.10;6.10;;;;;;;7.71;100.00;100853.42;106134;1256;62345;-74
2024/03/18 01:49:27;;;;;;;7.50;5.60;;;;;;;7.73;100.00;100854.90;105913;1253;72107;-77
2024/03/18 01:51:54;;;;;;;6.40;5.40;;;;;;;7.70;100.00;100852.05;105855;1254;61309;-75
2024/03/18 01:54:22;;;;;;;7.50;6.40;;;;;;;7.66;100.00;100850.84;105889;1251;61237;-74
2024/03/18 01:56:49;;;;;;;9.30;6.70;;;;;;;7.66;100.00;100853.25;105619;1253;73729;-73
2024/03/18 01:59:16;;;;;;;8.20;6.50;;;;;;;7.65;100.00;100851.05;105851;1253;63739;-75
2024/03/18 02:01:44;;;;;;;8.40;6.20;;;;;;;7.62;100.00;100849.65;105840;1253;72756;-74
2024/03/18 02:04:11;;;;;;;8.30;6.70;;;;;;;7.58;100.00;100847.02;105780;1257;61222;-75
2024/03/18 02:06:41;;;;;;;8.30;6.50;;;;;;;7.55;100.00;100842.44;105807;1255;61202;-76
2024/03/18 02:09:09;;;;;;;7.10;6.30;;;;;;;7.52;100.00;100842.09;105920;1257;74718;-75
2024/03/18 02:11:36;;;;;;;8.90;6.80;;;;;;;7.47;100.00;100839.66;105828;1256;63637;-73
2024/03/18 02:14:15;;;;;;;8.60;6.70;;;;;;;7.45;100.00;100839.91;105700;1256;71387;-74
2024/03/18 02:16:45;;;;;;;8.30;6.70;;;;;;;7.43;100.00;100840.19;105750;1255;61264;-75
2024/03/18 02:19:12;;;;;;;9.20;7.00;;;;;;;7.42;100.00;100843.01;105847;1251;61314;-72
2024/03/18 02:21:40;;;;;;;9.70;7.80;;;;;;;7.44;100.00;100839.28;105775;1256;75647;-73
2024/03/18 02:24:07;;;;;;;8.20;6.60;;;;;;;7.43;100.00;100839.47;105749;1255;62319;-74
2024/03/18 02:26:34;;;;;;;7.70;6.30;;;;;;;7.43;100.00;100834.95;105840;1256;71860;-75
2024/03/18 02:29:02;;;;;;;9.60;6.90;;;;;;;7.45;100.00;100836.98;105855;1258;61347;-74
2024/03/18 02:31:29;;;;;;;7.70;7.00;;;;;;;7.46;100.00;100832.92;105900;1251;61246;-75
2024/03/18 02:33:57;;;;;;;9.80;6.60;;;;;;;7.46;100.00;100832.57;105674;1255;74694;-75
2024/03/18 02:36:24;;;;;;;7.90;6.40;;;;;;;7.45;100.00;100832.64;105755;1255;63566;-75
2024/03/18 02:38:52;;;;;;;8.40;7.30;;;;;;;7.44;100.00;100832.33;105857;1255;73368;-74
2024/03/18 02:41:20;;;;;;;9.10;7.60;;;;;;;7.43;100.00;100828.86;105822;1253;61260;-75
2024/03/18 02:43:48;;;;;;;12.10;7.20;;;;;;;7.42;100.00;100828.40;106029;1256;61205;-77
2024/03/18 02:46:15;;;;;;;9.10;7.40;;;;;;;7.38;100.00;100828.92;105975;1253;74593;-74
2024/03/18 02:48:42;;;;;;;13.00;8.10;;;;;;;7.34;100.00;100827.16;106049;1253;62610;-73
2024/03/18 02:51:09;;;;;;;12.10;8.40;;;;;;;7.30;100.00;100824.05;106141;1256;72814;-73
2024/03/18 02:53:37;;;;;;;10.40;8.40;;;;;;;7.27;100.00;100822.98;105741;1252;61324;-76
2024/03/18 02:56:05;;;;;;;12.30;7.60;;;;;;;7.22;100.00;100822.65;105883;1253;61308;-74
2024/03/18 02:58:32;;;;;;;14.70;7.80;;;;;;;7.19;100.00;100825.06;105976;1255;74637;-74
2024/03/18 03:01:00;;;;;;;14.30;8.10;;;;;;;7.15;100.00;100823.11;105823;1254;63749;-74
2024/03/18 03:03:28;;;;;;;11.40;8.50;;;;;;;7.11;100.00;100820.17;105919;1256;71467;-74
2024/03/18 03:05:57;;;;;;;13.20;7.90;;;;;;;7.10;100.00;100820.94;105871;1252;61877;-76
2024/03/18 03:08:25;;;;;;;10.30;8.00;;;;;;;7.10;100.00;100812.75;105884;1254;61127;-75
2024/03/18 03:10:52;;;;;;;12.60;8.60;;;;;;;7.11;100.00;100815.50;105891;1254;74513;-73
2024/03/18 03:13:20;;;;;;;10.90;8.20;;;;;;;7.11;100.00;100816.34;105849;1255;62281;-74
2024/03/18 03:15:48;;;;;;;15.30;10.10;;;;;;;7.12;100.00;100818.56;105686;1253;71481;-74
2024/03/18 03:18:15;;;;;;;18.00;12.10;;;;;;;7.16;100.00;100820.85;105766;1254;61224;-74
2024/03/18 03:20:43;;;;;;;12.00;7.30;;;;;;;7.19;100.00;100819.84;105931;1256;61221;-75
2024/03/18 03:23:11;;;;;;;8.50;6.60;;;;;;;7.23;100.00;100818.42;105939;1251;74764;-74
2024/03/18 03:25:40;;;;;;;7.70;6.30;;;;;;;7.29;100.00;100821.86;109642;1251;63712;-71
2024/03/18 03:28:08;;;;;;;8.50;5.70;;;;;;;7.33;100.00;100819.95;109605;1251;72654;-72
2024/03/18 03:30:36;;;;;;;9.00;5.90;;;;;;;7.35;100.00;100828.73;109613;1253;60980;-72
2024/03/18 03:33:04;;;;;;;7.30;6.40;;;;;;;7.34;100.00;100830.33;109687;1251;60160;-72
2024/03/18 03:35:32;;;;;;;9.40;7.30;;;;;;;7.35;100.00;100831.13;109619;1251;74641;-73
2024/03/18 03:37:59;;;;;;;8.50;5.80;;;;;;;7.36;100.00;100830.23;109655;1250;62516;-73
2024/03/18 03:40:27;;;;;;;9.40;6.20;;;;;;;7.36;100.00;100833.20;109583;1253;72693;-74
2024/03/18 03:42:54;;;;;;;8.80;6.40;;;;;;;7.33;100.00;100833.52;109578;1251;60470;-74
2024/03/18 03:45:24;;;;;;;7.20;5.70;;;;;;;7.31;100.00;100834.29;109618;1255;58881;-73
2024/03/18 03:47:52;;;;;;;9.10;5.80;;;;;;;7.30;100.00;100834.85;109610;1257;74658;-75
2024/03/18 03:50:20;;;;;;;8.10;5.90;;;;;;;7.29;100.00;100836.60;109575;1251;63529;-75
2024/03/18 03:52:47;;;;;;;7.70;5.60;;;;;;;7.29;100.00;100837.13;109584;1253;72737;-74
2024/03/18 03:55:15;;;;;;;7.90;6.70;;;;;;;7.30;100.00;100840.94;109573;1254;60444;-74
2024/03/18 03:57:42;;;;;;;7.80;6.10;;;;;;;7.29;100.00;100843.91;109691;1253;60189;-75
2024/03/18 04:00:11;;;;;;;8.10;6.70;;;;;;;7.28;100.00;100844.48;109643;1252;74702;-74
2024/03/18 04:02:39;;;;;;;10.00;6.00;;;;;;;7.25;100.00;100841.47;109657;1251;62297;-73
2024/03/18 04:05:07;;;;;;;7.90;6.20;;;;;;;7.26;100.00;100839.36;109572;1251;71435;-75
2024/03/18 04:07:35;;;;;;;7.70;6.40;;;;;;;7.28;100.00;100835.78;109577;1251;60047;-74
2024/03/18 04:10:03;;;;;;;17.30;9.20;;;;;;;7.32;100.00;100837.73;109631;1251;60119;-74
2024/03/18 04:12:30;;;;;;;7.90;6.60;;;;;;;7.34;100.00;100834.84;109594;1251;74812;-74
2024/03/18 04:14:58;;;;;;;8.90;6.70;;;;;;;7.36;100.00;100839.27;109607;1256;63634;-73
2024/03/18 04:17:25;;;;;;;10.30;7.00;;;;;;;7.36;100.00;100843.09;109580;1251;72676;-74
2024/03/18 04:19:54;;;;;;;8.90;6.80;;;;;;;7.36;100.00;100839.98;109621;1251;61793;-74
2024/03/18 04:22:21;;;;;;;9.00;6.50;;;;;;;7.36;100.00;100831.48;109649;1251;58825;-74
2024/03/18 04:24:48;;;;;;;9.80;6.80;;;;;;;7.36;100.00;100828.30;109594;1251;75071;-76
2024/03/18 04:27:16;;;;;;;9.50;7.40;;;;;;;7.38;100.00;100832.08;109598;1251;62454;-75
2024/03/18 04:29:43;;;;;;;9.50;6.10;;;;;;;7.37;100.00;100830.55;109584;1251;71327;-74
2024/03/18 04:32:11;;;;;;;8.10;7.30;;;;;;;7.35;100.00;100832.19;109580;1256;59085;-74
2024/03/18 04:34:38;;;;;;;10.40;7.60;;;;;;;7.30;100.00;100835.00;109582;1251;59076;-74
2024/03/18 04:37:05;;;;;;;8.20;6.00;;;;;;;7.26;100.00;100838.51;109623;1251;74613;-75
2024/03/18 04:39:33;;;;;;;8.90;7.50;;;;;;;7.21;100.00;100836.77;109640;1251;64907;-73
2024/03/18 04:42:00;;;;;;;8.20;6.60;;;;;;;7.21;100.00;100832.27;109622;1251;72472;-74
2024/03/18 04:44:27;;;;;;;8.20;6.70;;;;;;;7.24;100.00;100833.90;109565;1251;61663;-74
2024/03/18 04:46:55;;;;;;;8.30;7.10;;;;;;;7.28;100.00;100837.35;109615;1251;60200;-75
2024/03/18 04:49:23;;;;;;;8.40;6.90;;;;;;;7.33;100.00;100831.73;109600;1251;73440;-74
2024/03/18 04:51:50;;;;;;;7.60;6.80;;;;;;;7.42;100.00;100833.11;109623;1251;62471;-73
2024/03/18 04:54:17;;;;;;;9.00;7.00;;;;;;;7.52;100.00;100836.14;109614;1251;72354;-74
2024/03/18 04:56:44;;;;;;;14.00;8.30;;;;;;;7.63;100.00;100839.83;109564;1254;61264;-73
2024/03/18 04:59:12;;;;;;;11.30;7.40;;;;;;;7.78;100.00;100841.06;109608;1256;60061;-74
2024/03/18 05:01:39;;;;;;;7.20;6.00;;;;;;;8.11;100.00;100841.84;109666;1251;74610;-73
2024/03/18 05:04:07;;;;;;;9.80;7.30;;;;;;;8.66;100.00;100847.70;109583;1251;63821;-74
2024/03/18 05:06:34;;;;;;;11.20;7.20;;;;;;;9.23;100.00;100851.27;109588;1251;72592;-74
2024/03/18 05:09:01;;;;;;;10.60;7.70;;;;;;;9.58;100.00;100852.48;109615;1253;59298;-74
2024/03/18 05:11:28;;;;;;;9.50;7.30;;;;;;;9.67;100.00;100854.98;109574;1251;58848;-74
2024/03/18 05:13:56;;;;;;;11.30;8.90;;;;;;;9.63;100.00;100856.39;109609;1251;74603;-74
2024/03/18 05:16:27;;;;;;;9.20;7.40;;;;;;;9.48;100.00;100857.52;109586;1251;62855;-74
2024/03/18 05:18:55;;;;;;;8.40;7.50;;;;;;;9.27;100.00;100868.00;109556;1251;74896;-74
2024/03/18 05:21:22;;;;;;;10.50;7.80;;;;;;;9.05;100.00;100865.98;109582;1251;60420;-74
2024/03/18 05:23:50;;;;;;;7.70;7.00;;;;;;;8.93;100.00;100869.20;109615;1251;59969;-75
2024/03/18 05:26:18;;;;;;;10.10;8.50;;;;;;;8.84;100.00;100869.59;109601;1251;74627;-75
2024/03/18 05:28:45;;;;;;;11.20;9.00;;;;;;;8.83;100.00;100868.96;109592;1251;62487;-74
2024/03/18 05:31:12;;;;;;;12.00;9.60;;;;;;;8.79;100.00;100869.72;109605;1251;72715;-74
2024/03/18 05:33:40;;;;;;;10.60;9.50;;;;;;;8.72;100.00;100871.23;109538;1251;59044;-74
2024/03/18 05:36:07;;;;;;;13.00;9.40;;;;;;;8.69;100.00;100872.95;109580;1251;60037;-75
2024/03/18 05:38:34;;;;;;;12.50;9.30;;;;;;;8.69;100.00;100875.91;109586;1251;74626;-76
2024/03/18 05:41:02;;;;;;;9.90;8.40;;;;;;;8.63;100.00;100875.32;109622;1251;64016;-73
2024/03/18 05:43:30;;;;;;;11.80;10.40;;;;;;;8.50;100.00;100879.94;109569;1251;72364;-74
2024/03/18 05:45:59;;;;;;;12.40;9.00;;;;;;;8.41;100.00;100879.87;109554;1251;60442;-75
2024/03/18 05:48:26;;;;;;;10.50;9.40;;;;;;;8.36;100.00;100876.92;109604;1251;60229;-76
2024/03/18 05:50:54;;;;;;;10.80;9.10;;;;;;;8.40;100.00;100879.02;109594;1251;74934;-74
2024/03/18 05:53:22;;;;;;;11.70;9.70;;;;;;;8.47;100.00;100881.16;109613;1251;62293;-76
2024/03/18 05:55:49;;;;;;;14.60;11.50;;;;;;;8.40;100.00;100881.46;109611;1251;71948;-73
2024/03/18 05:58:16;;;;;;;10.20;9.20;;;;;;;8.33;100.00;100886.83;109588;1254;60133;-74
2024/03/18 06:00:44;;;;;;;6.80;6.00;;;;;;;8.18;100.00;100891.52;109647;1251;58949;-74
2024/03/18 06:03:11;;;;;;;8.30;6.90;;;;;;;7.99;100.00;100891.13;109601;1251;74768;-73
2024/03/18 06:05:39;;;;;;;8.10;6.30;;;;;;;7.81;100.00;100891.96;109621;1251;62440;-74
2024/03/18 06:08:06;;;;;;;6.60;5.10;;;;;;;7.68;100.00;100891.13;109601;1254;71442;-75
2024/03/18 06:10:33;;;;;;;8.50;7.60;;;;;;;7.56;100.00;100898.77;109561;1251;61756;-75
2024/03/18 06:13:01;;;;;;;7.30;6.20;;;;;;;7.37;100.00;100893.16;109643;1251;60009;-74
2024/03/18 06:15:28;;;;;;;6.10;5.50;;;;;;;7.17;100.00;100897.63;109575;1252;74710;-74
2024/03/18 06:17:55;;;;;;;6.00;5.40;;;;;;;6.99;100.00;100905.16;109596;1251;63526;-75
2024/03/18 06:20:23;;;;;;;7.00;6.10;;;;;;;6.89;100.00;100902.45;109593;1251;72681;-75
2024/03/18 06:22:50;;;;;;;5.80;5.10;;;;;;;6.90;100.00;100898.73;109590;1251;58891;-74
2024/03/18 06:28:03;;;;;;;6.20;5.60;;;;;;;6.88;100.00;100897.79;109658;1251;74666;-75
2024/03/18 06:30:31;;;;;;;8.00;5.80;;;;;;;6.85;100.00;100898.59;109584;1251;63643;-75
2024/03/18 06:32:58;;;;;;;5.70;5.20;;;;;;;6.87;100.00;100899.55;109592;1251;72885;-74
2024/03/18 06:35:26;;;;;;;4.00;3.40;;;;;;;6.89;100.00;100898.77;109575;1251;61136;-75
2024/03/18 06:37:53;;;;;;;4.90;4.00;;;;;;;6.82;100.00;100903.38;109607;1251;61741;-76
2024/03/18 06:40:21;;;;;;;6.50;5.40;;;;;;;6.81;100.00;100905.52;109579;1251;74510;-74
2024/03/18 06:42:51;;;;;;;7.40;5.20;;;;;;;6.83;100.00;100900.23;109708;1251;63082;-73
2024/03/18 06:45:19;;;;;;;7.10;5.20;;;;;;;6.95;100.00;100900.80;109628;1251;71867;-76
2024/03/18 06:47:46;;;;;;;4.00;3.50;;;;;;;7.13;100.00;100905.80;109584;1251;60636;-76
2024/03/18 06:50:16;;;;;;;5.50;4.90;;;;;;;7.37;100.00;100903.95;109645;1251;58925;-75
2024/03/18 06:52:43;;;;;;;7.10;6.20;;;;;;;7.60;100.00;100905.56;109613;1251;74736;-76
2024/03/18 06:55:11;;;;;;;9.40;7.90;;;;;;;7.88;100.00;100900.20;109657;1251;63814;-76
2024/03/18 06:57:38;;;;;;;9.50;8.50;;;;;;;8.11;100.00;100900.34;109627;1251;71289;-74
2024/03/18 07:00:07;;;;;;;8.00;6.80;;;;;;;8.27;100.00;100904.16;109592;1251;59143;-75
2024/03/18 07:02:34;;;;;;;6.70;6.00;;;;;;;8.34;100.00;100901.23;109627;1251;58959;-76
2024/03/18 07:05:01;;;;;;;7.90;7.10;;;;;;;8.31;100.00;100899.60;109631;1251;74578;-75
2024/03/18 07:07:29;;;;;;;14.30;11.60;;;;;;;8.23;100.00;100898.63;109627;1251;62787;-74
2024/03/18 07:09:56;;;;;;;17.20;9.00;;;;;;;8.14;100.00;100890.48;109561;1251;74420;-75
2024/03/18 07:12:24;;;;;;;8.10;7.30;;;;;;;8.11;100.00;100891.48;109572;1251;60721;-74
2024/03/18 07:14:52;;;;;;;7.60;6.80;;;;;;;8.05;100.00;100890.20;109477;1251;60150;-74
2024/03/18 07:17:19;;;;;;;6.20;5.60;;;;;;;7.98;100.00;100890.31;109622;1251;74533;-76
2024/03/18 07:19:47;;;;;;;6.70;6.00;;;;;;;7.94;100.00;100892.63;109647;1251;62976;-75
2024/03/18 07:22:35;;;;;;;9.10;5.80;;;;;;;7.89;100.00;100888.98;109599;1251;72904;-75
2024/03/18 07:25:03;;;;;;;9.70;6.10;;;;;;;7.81;100.00;100884.10;109635;1251;60216;-74
2024/03/18 07:27:31;;;;;;;10.20;9.10;;;;;;;7.73;100.00;100884.99;109759;1251;58913;-75
2024/03/18 07:30:00;;;;;;;22.10;17.10;;;;;;;7.62;100.00;100886.67;109665;1251;75176;-73
2024/03/18 07:32:27;;;;;;;6.80;6.20;;;;;;;7.52;100.00;100885.74;109599;1251;64648;-75
2024/03/18 07:34:54;;;;;;;6.90;6.30;;;;;;;7.46;100.00;100876.75;109583;1251;73908;-75
2024/03/18 07:37:34;;;;;;;6.10;4.90;;;;;;;7.47;100.00;100876.02;109576;1251;62163;-75
2024/03/18 07:40:05;;;;;;;10.30;7.90;;;;;;;7.53;100.00;100875.11;109639;1251;59321;-74
2024/03/18 07:42:32;;;;;;;8.70;6.40;;;;;;;7.56;100.00;100871.64;109547;1251;76611;-75
2024/03/18 07:45:00;;;;;;;6.70;5.90;;;;;;;7.59;100.00;100865.59;109589;1250;62994;-75
2024/03/18 07:47:28;;;;;;;7.20;5.90;;;;;;;7.65;100.00;100863.78;109571;1251;71439;-75
2024/03/18 07:49:55;;;;;;;6.00;5.40;;;;;;;7.74;100.00;100862.86;109578;1253;61574;-75
2024/03/18 07:52:23;;;;;;;6.70;6.10;;;;;;;7.79;100.00;100860.73;109620;1251;60235;-77
2024/03/18 07:54:51;;;;;;;6.50;5.80;;;;;;;7.81;100.00;100856.63;109580;1251;74955;-76
2024/03/18 07:57:18;;;;;;;5.40;4.90;;;;;;;7.84;100.00;100854.20;109600;1251;61743;-75
2024/03/18 07:59:45;;;;;;;6.70;5.70;;;;;;;7.86;100.00;100852.73;109545;1251;72575;-77
2024/03/18 08:02:13;;;;;;;8.40;6.10;;;;;;;7.93;100.00;100855.40;109549;1251;61165;-75
2024/03/18 08:04:40;;;;;;;5.60;5.10;;;;;;;7.97;100.00;100854.87;109621;1251;60981;-75
2024/03/18 08:07:07;;;;;;;5.80;5.30;;;;;;;7.97;100.00;100852.60;109649;1251;74669;-76
2024/03/18 08:09:35;;;;;;;7.30;5.00;;;;;;;8.01;100.00;100851.02;109605;1251;65854;-75
2024/03/18 08:12:02;;;;;;;8.40;4.90;;;;;;;8.06;100.00;100849.58;109568;1251;74863;-77
2024/03/18 08:14:31;;;;;;;6.30;5.20;;;;;;;8.08;100.00;100846.32;109588;1251;60224;-76
2024/03/18 08:17:01;;;;;;;6.10;4.70;;;;;;;8.11;100.00;100844.10;109595;1251;59196;-76
2024/03/18 08:19:28;;;;;;;5.80;4.90;;;;;;;8.20;100.00;100845.10;109614;1251;77366;-75
2024/03/18 08:21:56;;;;;;;10.80;6.10;;;;;;;8.25;100.00;100842.63;109599;1251;65596;-75
2024/03/18 08:24:30;;;;;;;11.40;5.90;;;;;;;8.26;100.00;100840.42;109604;1251;72757;-75
2024/03/18 08:26:57;;;;;;;6.20;5.10;;;;;;;8.30;100.00;100838.89;109631;1251;60659;-76
2024/03/18 08:29:27;;;;;;;7.00;5.60;;;;;;;8.34;100.00;100840.28;109617;1251;60466;-75
2024/03/18 08:31:54;;;;;;;9.30;6.10;;;;;;;8.35;100.00;100835.86;109599;1251;74513;-75
2024/03/18 08:34:22;;;;;;;6.90;5.80;;;;;;;8.32;100.00;100835.35;109530;1251;63789;-75
2024/03/18 08:36:49;;;;;;;7.10;5.70;;;;;;;8.30;100.00;100832.95;109594;1251;72836;-75
2024/03/18 08:39:18;;;;;;;11.60;6.80;;;;;;;8.32;100.00;100833.20;109557;1251;61515;-75
2024/03/18 08:41:47;;;;;;;9.60;6.50;;;;;;;8.30;100.00;100831.57;109636;1251;60966;-75
2024/03/18 08:44:15;;;;;;;9.80;5.70;;;;;;;8.32;100.00;100831.66;109487;1251;74827;-75
2024/03/18 08:46:45;;;;;;;13.30;8.70;;;;;;;8.37;100.00;100830.36;109587;1250;63898;-75
2024/03/18 08:49:13;;;;;;;18.00;13.20;;;;;;;8.44;100.00;100830.59;109583;1251;72835;-75
2024/03/18 08:51:41;;;;;;;17.60;15.90;;;;;;;8.50;100.00;100826.63;109624;1252;59149;-72
2024/03/18 08:54:10;;;;;;;19.20;14.40;;;;;;;8.58;100.00;100831.12;109585;1251;58913;-75
2024/03/18 08:56:38;;;;;;;14.20;10.80;;;;;;;8.68;100.00;100828.17;109627;1251;74882;-75
2024/03/18 08:59:05;;;;;;;17.90;9.20;;;;;;;8.82;100.00;100828.08;109583;1251;65813;-74
2024/03/18 09:01:32;;;;;;;7.20;6.40;;;;;;;9.01;100.00;100826.92;109601;1251;72004;-75
2024/03/18 09:04:00;;;;;;;7.70;6.00;;;;;;;9.28;100.00;100830.83;109558;1251;60954;-74
2024/03/18 09:06:27;;;;;;;8.60;6.30;;;;;;;9.58;100.00;100830.45;109681;1251;58927;-75
2024/03/18 09:08:55;;;;;;;7.50;6.30;;;;;;;10.02;100.00;100827.27;109635;1251;76678;-76
2024/03/18 09:11:23;;;;;;;6.50;5.90;;;;;;;10.68;100.00;100821.50;109614;1251;62357;-75
2024/03/18 09:13:50;;;;;;;6.30;5.70;;;;;;;11.29;100.00;100824.08;109574;1251;71734;-76
2024/03/18 09:16:18;;;;;;;6.40;5.80;;;;;;;11.67;100.00;100821.79;109590;1251;59033;-74
2024/03/18 09:18:45;;;;;;;6.60;6.00;;;;;;;11.87;100.00;100824.93;109617;1251;61811;-75
2024/03/18 09:21:12;;;;;;;9.00;7.60;;;;;;;11.97;100.00;100818.57;109644;1251;75254;-73
2024/03/18 09:23:40;;;;;;;9.40;7.50;;;;;;;11.95;100.00;100817.98;109627;1251;62142;-75
2024/03/18 09:26:09;;;;;;;7.50;6.70;;;;;;;11.97;100.00;100815.09;109486;1254;72562;-74
2024/03/18 09:28:36;;;;;;;6.50;5.80;;;;;;;12.04;100.00;100817.41;109581;1251;60847;-73
2024/03/18 09:31:04;;;;;;;6.90;6.30;;;;;;;12.06;100.00;100814.70;109658;1251;60706;-76
2024/03/18 09:33:31;;;;;;;7.60;6.80;;;;;;;12.02;100.00;100809.30;109640;1251;74450;-75
2024/03/18 09:35:59;;;;;;;9.40;7.30;;;;;;;12.08;100.00;100809.50;109647;1251;63409;-75
2024/03/18 09:38:27;;;;;;;7.30;6.50;;;;;;;12.17;100.00;100804.00;109599;1251;71897;-74
2024/03/18 09:41:05;;;;;;;11.20;6.30;;;;;;;12.28;100.00;100808.90;109772;1251;61159;-75
2024/03/18 09:43:33;;;;;;;8.60;5.70;;;;;;;12.36;100.00;100808.56;109374;1251;282848;-75
2024/03/18 09:47:04;;;;;;;5.40;4.90;;;;;;;12.43;100.00;100808.83;102572;1292;600769;-76
2024/03/18 09:49:32;;;;;;;8.40;6.80;;;;;;;12.39;100.00;100805.38;104845;1267;59929;-75
2024/03/18 09:52:00;;;;;;;6.00;5.40;;;;;;;12.39;100.00;100808.55;104900;1273;60052;-75
2024/03/18 09:54:28;;;;;;;7.40;6.60;;;;;;;12.39;100.00;100806.26;104954;1268;73615;-76
2024/03/18 09:57:01;;;;;;;8.40;5.30;;;;;;;12.33;100.00;100803.14;105164;1266;64811;-74
2024/03/18 09:59:30;;;;;;;6.60;5.90;;;;;;;12.25;100.00;100804.56;105051;1269;72659;-75
2024/03/18 10:01:58;;;;;;;6.50;5.90;;;;;;;12.19;100.00;100800.67;105037;1266;60450;-74
2024/03/18 10:04:25;;;;;;;9.50;7.00;;;;;;;12.16;100.00;100805.80;105159;1260;61056;-75
2024/03/18 10:06:53;;;;;;;8.60;7.60;;;;;;;12.09;100.00;100800.11;105310;1261;71557;-74
2024/03/18 10:09:25;;;;;;;10.30;9.20;;;;;;;12.01;100.00;100797.27;105279;1265;64542;-76
2024/03/18 10:11:56;;;;;;;13.70;11.00;;;;;;;11.94;100.00;100797.89;105422;1260;72098;-76
2024/03/18 10:14:24;;;;;;;12.20;10.00;;;;;;;11.83;100.00;100791.56;105356;1262;60391;-75
2024/03/18 10:16:51;;;;;;;10.40;9.30;;;;;;;11.70;100.00;100790.65;105492;1262;62874;-75
2024/03/18 10:19:19;;;;;;;10.70;9.20;;;;;;;11.56;100.00;100786.41;105378;1262;73538;-76
2024/03/18 10:21:47;;;;;;;9.00;8.00;;;;;;;11.43;100.00;100779.86;105317;1264;62821;-77
2024/03/18 10:24:17;;;;;;;9.00;8.00;;;;;;;11.30;100.00;100776.80;105269;1263;72964;-76
2024/03/18 10:26:45;;;;;;;11.80;10.50;;;;;;;11.19;100.00;100773.04;105342;1256;60421;-75
2024/03/18 10:29:12;;;;;;;8.30;7.30;;;;;;;11.19;100.00;100767.63;105328;1258;60437;-78
2024/03/18 10:31:40;;;;;;;5.60;5.00;;;;;;;11.41;100.00;100763.84;105291;1263;74149;-75
2024/03/18 10:34:07;;;;;;;5.00;4.20;;;;;;;11.75;100.00;100762.97;105670;1262;65622;-76
2024/03/18 10:36:35;;;;;;;3.30;3.00;;;;;;;11.98;100.00;100758.41;105471;1263;72738;-78
2024/03/18 10:39:19;;;;;;;4.80;3.50;;;;;;;12.08;100.00;100755.68;105433;1262;60473;-78
2024/03/18 10:41:46;;;;;;;6.00;3.40;;;;;;;12.00;100.00;100752.98;105398;1262;61489;-75
2024/03/18 10:44:18;;;;;;;3.50;3.20;;;;;;;11.89;100.00;100745.48;105730;1263;76215;-75
2024/03/18 10:46:46;;;;;;;4.30;3.40;;;;;;;11.78;100.00;100741.21;105426;1262;62811;-77
2024/03/18 10:49:17;;;;;;;6.10;4.00;;;;;;;11.74;100.00;100741.02;105549;1263;72656;-77
2024/03/18 10:51:49;;;;;;;3.90;3.40;;;;;;;11.75;100.00;100734.95;105688;1263;60565;-76
2024/03/18 10:54:17;;;;;;;3.80;3.30;;;;;;;11.80;100.00;100733.09;105489;1262;60487;-75
2024/03/18 10:56:45;;;;;;;4.90;4.10;;;;;;;11.87;100.00;100729.85;105352;1263;73576;-75
2024/03/18 10:59:14;;;;;;;7.80;5.80;;;;;;;11.92;100.00;100727.09;105382;1272;64063;-75
2024/03/18 11:01:41;;;;;;;5.70;4.70;;;;;;;11.95;100.00;100722.83;105339;1263;74150;-75
2024/03/18 11:04:20;;;;;;;8.30;5.60;;;;;;;11.99;100.00;100721.17;105377;1259;60341;-75
2024/03/18 11:06:53;;;;;;;8.90;6.40;;;;;;;11.97;100.00;100721.52;105409;1258;60500;-77
2024/03/18 11:09:22;;;;;;;5.40;4.00;;;;;;;11.92;100.00;100716.22;105323;1261;73047;-75
2024/03/18 11:11:50;;;;;;;4.10;3.70;;;;;;;11.90;100.00;100714.05;105402;1260;64332;-76
2024/03/18 11:14:28;;;;;;;5.00;4.50;;;;;;;11.86;100.00;100709.41;105497;1262;72314;-76
2024/03/18 11:16:56;;;;;;;6.60;4.30;;;;;;;11.76;100.00;100706.87;106010;1259;60578;-76
2024/03/18 11:19:25;;;;;;;4.40;3.70;;;;;;;11.67;100.00;100711.30;105598;1263;62623;-76